Time;durP1;ratioP1;P1;durP2;ratioP2;P2;SDS_P1;SDS_P2;PMS_P1;PMS_P2;Temp;Humidity;BMP_temperature;BMP_pressure;BME280_temperature;BME280_humidity;BME280_pressure;Samples;Min_cycle;Max_cycle;Signal;HPM_P1;HPM_P2
2021/04/15 00:02:13;;;;;;;7.20;5.30;;;4.10;99.90;;;;;;5075481;28;20462;-53
2021/04/15 00:04:41;;;;;;;8.27;6.03;;;4.00;99.90;;;;;;5082295;28;20500;-53
2021/04/15 00:07:07;;;;;;;6.90;5.50;;;4.10;99.90;;;;;;5085620;28;20479;-54
2021/04/15 00:09:34;;;;;;;8.23;5.57;;;4.10;99.90;;;;;;5087727;28;20469;-53
2021/04/15 00:12:00;;;;;;;8.60;6.07;;;4.10;99.90;;;;;;5087623;28;20457;-53
2021/04/15 00:14:27;;;;;;;9.40;6.40;;;3.90;99.90;;;;;;5077776;28;20470;-53
2021/04/15 00:16:53;;;;;;;7.87;5.83;;;3.50;99.90;;;;;;5085412;28;20517;-53
2021/04/15 00:19:20;;;;;;;9.43;5.93;;;3.20;99.90;;;;;;5083654;28;20455;-54
2021/04/15 00:21:48;;;;;;;9.20;6.37;;;3.10;99.90;;;;;;5078118;28;20887;-53
2021/04/15 00:24:15;;;;;;;8.87;6.60;;;3.10;99.90;;;;;;5081229;28;20512;-53
2021/04/15 00:26:41;;;;;;;11.13;7.13;;;3.10;99.90;;;;;;5084128;28;20477;-53
2021/04/15 00:29:08;;;;;;;9.10;7.00;;;3.20;99.90;;;;;;5082619;28;20482;-53
2021/04/15 00:31:35;;;;;;;8.97;6.47;;;3.20;99.90;;;;;;5088093;28;20465;-53
2021/04/15 00:34:01;;;;;;;11.10;7.40;;;3.10;99.90;;;;;;5077213;28;20472;-53
2021/04/15 00:36:28;;;;;;;9.63;6.60;;;3.10;99.90;;;;;;5084941;28;20479;-52
2021/04/15 00:38:56;;;;;;;11.30;6.70;;;3.10;99.90;;;;;;5078114;28;20460;-53
2021/04/15 00:41:23;;;;;;;10.17;7.40;;;3.00;99.90;;;;;;5076400;28;20493;-54
2021/04/15 00:43:51;;;;;;;11.27;7.27;;;3.10;99.90;;;;;;5087387;28;20482;-53
2021/04/15 00:46:51;;;;;;;9.30;7.03;;;3.10;99.90;;;;;;5083569;28;20453;-53
2021/04/15 00:49:25;;;;;;;19.60;7.00;;;3.10;99.90;;;;;;5076912;28;20544;-53
2021/04/15 00:51:56;;;;;;;10.53;6.70;;;3.10;99.90;;;;;;5085212;28;20463;-53
2021/04/15 00:54:43;;;;;;;11.47;7.73;;;3.00;99.90;;;;;;5085011;28;20464;-54
2021/04/15 00:57:16;;;;;;;12.13;7.37;;;3.00;99.90;;;;;;5079380;28;20829;-53
2021/04/15 00:59:42;;;;;;;13.03;7.70;;;3.00;99.90;;;;;;5080768;28;20498;-53
2021/04/15 01:02:13;;;;;;;10.83;7.57;;;2.90;99.90;;;;;;5079943;28;20484;-54
2021/04/15 01:04:40;;;;;;;10.83;7.43;;;2.90;99.90;;;;;;5083307;28;20944;-53
2021/04/15 01:07:07;;;;;;;11.13;7.30;;;3.00;99.90;;;;;;5084358;28;20472;-53
2021/04/15 01:09:34;;;;;;;9.70;7.00;;;2.90;99.90;;;;;;5081369;28;20447;-53
2021/04/15 01:12:21;;;;;;;11.70;6.93;;;2.90;99.90;;;;;;5078123;28;21029;-53
2021/04/15 01:15:08;;;;;;;12.37;7.67;;;2.90;99.90;;;;;;5078606;28;20482;-53
2021/04/15 01:17:50;;;;;;;11.77;7.40;;;2.90;99.90;;;;;;5074704;28;20978;-53
2021/04/15 01:20:38;;;;;;;10.80;7.40;;;2.90;99.90;;;;;;5088438;28;20904;-53
2021/04/15 01:23:18;;;;;;;12.37;7.40;;;3.00;99.90;;;;;;5076516;28;20551;-53
2021/04/15 01:26:14;;;;;;;12.00;7.83;;;3.00;99.90;;;;;;5090262;28;20472;-53
2021/04/15 01:29:01;;;;;;;11.60;7.57;;;3.00;99.90;;;;;;5087479;28;20453;-53
2021/04/15 01:31:40;;;;;;;11.97;7.90;;;3.10;99.90;;;;;;5082319;28;20461;-54
2021/04/15 01:34:13;;;;;;;12.50;6.70;;;3.20;99.90;;;;;;5084217;28;20904;-53
2021/04/15 01:36:45;;;;;;;12.13;7.50;;;3.20;99.90;;;;;;5090886;28;20534;-53
2021/04/15 01:39:16;;;;;;;11.40;7.60;;;3.20;99.90;;;;;;5081880;28;20459;-53
2021/04/15 01:41:51;;;;;;;12.20;6.57;;;3.30;99.90;;;;;;5087181;28;20489;-53
2021/04/15 01:44:24;;;;;;;10.60;7.10;;;3.40;99.90;;;;;;5088922;28;20472;-53
2021/04/15 01:46:53;;;;;;;10.50;7.60;;;3.40;99.90;;;;;;5083917;28;20535;-54
2021/04/15 01:49:22;;;;;;;10.47;7.77;;;3.20;99.90;;;;;;5075165;28;20477;-53
2021/04/15 01:51:50;;;;;;;11.37;7.30;;;3.20;99.90;;;;;;5083965;28;20464;-52
2021/04/15 01:54:22;;;;;;;12.03;7.20;;;3.40;99.90;;;;;;5084994;28;20476;-53
2021/04/15 01:56:54;;;;;;;10.47;7.37;;;3.40;99.90;;;;;;5084205;28;20441;-54
2021/04/15 01:59:29;;;;;;;8.77;7.17;;;3.60;99.90;;;;;;5089325;28;20472;-53
2021/04/15 02:02:01;;;;;;;8.60;6.40;;;3.70;99.90;;;;;;5082874;28;21002;-54
2021/04/15 02:04:31;;;;;;;8.33;6.40;;;3.70;99.90;;;;;;5075970;28;20478;-54
2021/04/15 02:07:04;;;;;;;11.43;6.77;;;3.60;99.90;;;;;;5077073;28;20447;-54
2021/04/15 02:09:31;;;;;;;8.10;6.50;;;3.60;99.90;;;;;;5072271;28;20452;-54
2021/04/15 02:12:02;;;;;;;8.30;6.73;;;3.60;99.90;;;;;;5071070;28;20438;-54
2021/04/15 02:14:34;;;;;;;10.20;7.13;;;3.70;99.90;;;;;;5072078;28;20986;-54
2021/04/15 02:17:04;;;;;;;8.40;6.40;;;3.70;99.90;;;;;;5071963;28;20451;-54
2021/04/15 02:19:37;;;;;;;9.10;6.57;;;3.70;99.90;;;;;;5086126;28;20487;-54
2021/04/15 02:22:09;;;;;;;9.70;6.47;;;3.70;99.90;;;;;;5076989;28;20482;-54
2021/04/15 02:24:42;;;;;;;12.40;7.20;;;3.70;99.90;;;;;;5071975;28;20467;-54
2021/04/15 02:27:17;;;;;;;8.23;6.20;;;3.70;99.90;;;;;;5071783;28;20819;-54
2021/04/15 02:29:51;;;;;;;8.90;6.47;;;3.80;99.90;;;;;;5071572;28;20446;-53
2021/04/15 02:32:21;;;;;;;10.20;6.53;;;3.80;99.90;;;;;;5077648;28;20472;-53
2021/04/15 02:34:54;;;;;;;9.77;6.80;;;3.80;99.90;;;;;;5087817;28;20533;-54
2021/04/15 02:37:24;;;;;;;8.77;6.03;;;3.80;99.90;;;;;;5089665;28;20442;-54
2021/04/15 02:39:56;;;;;;;10.93;6.30;;;4.00;99.90;;;;;;5072459;28;20450;-53
2021/04/15 02:42:27;;;;;;;7.80;6.10;;;4.00;99.90;;;;;;5091373;28;20552;-54
2021/04/15 02:45:00;;;;;;;7.60;6.00;;;3.90;99.90;;;;;;5091577;28;20465;-54
2021/04/15 02:47:32;;;;;;;8.17;5.90;;;4.00;99.90;;;;;;5076309;28;21001;-54
2021/04/15 02:50:01;;;;;;;7.50;6.20;;;4.00;99.90;;;;;;5091642;28;20451;-54
2021/04/15 02:52:32;;;;;;;10.83;6.57;;;3.90;99.90;;;;;;5089520;28;20457;-54
2021/04/15 02:55:02;;;;;;;10.07;6.60;;;3.90;99.90;;;;;;5091536;28;20462;-53
2021/04/15 02:57:35;;;;;;;8.37;6.33;;;3.90;99.90;;;;;;5091541;28;20445;-54
2021/04/15 03:00:07;;;;;;;8.93;6.60;;;3.90;99.90;;;;;;5090557;28;20959;-53
2021/04/15 03:02:40;;;;;;;10.80;7.50;;;4.00;99.90;;;;;;5075233;28;20454;-53
2021/04/15 03:05:11;;;;;;;8.90;6.43;;;4.00;99.90;;;;;;5072179;28;20831;-53
2021/04/15 03:07:40;;;;;;;8.87;6.30;;;3.90;99.90;;;;;;5081747;28;20456;-53
2021/04/15 03:10:11;;;;;;;9.00;6.80;;;3.90;99.90;;;;;;5082519;28;20491;-54
2021/04/15 03:12:42;;;;;;;10.53;6.80;;;3.60;99.90;;;;;;5089810;28;20528;-54
2021/04/15 03:15:14;;;;;;;10.80;7.23;;;3.50;99.90;;;;;;5085553;28;20465;-54
2021/04/15 03:17:43;;;;;;;9.80;6.70;;;3.50;99.90;;;;;;5091171;28;20451;-54
2021/04/15 03:20:15;;;;;;;9.50;7.30;;;3.50;99.90;;;;;;5091186;28;20464;-53
2021/04/15 03:22:47;;;;;;;9.97;6.83;;;3.50;99.90;;;;;;5091335;28;20449;-53
2021/04/15 03:25:15;;;;;;;10.13;7.67;;;3.50;99.90;;;;;;5095112;28;20964;-53
2021/04/15 03:27:47;;;;;;;10.53;7.17;;;3.50;99.90;;;;;;5092300;28;20450;-54
2021/04/15 03:30:19;;;;;;;14.20;7.33;;;3.50;99.90;;;;;;5075159;28;20524;-53
2021/04/15 03:32:51;;;;;;;10.20;7.20;;;3.50;99.90;;;;;;5075205;28;20461;-53
2021/04/15 03:35:26;;;;;;;9.00;6.87;;;3.40;99.90;;;;;;5076160;28;20447;-54
2021/04/15 03:37:57;;;;;;;8.40;6.37;;;3.50;99.90;;;;;;5094821;28;20825;-54
2021/04/15 03:40:26;;;;;;;9.80;6.53;;;3.60;99.90;;;;;;5084689;28;20446;-54
2021/04/15 03:42:55;;;;;;;9.07;7.00;;;3.60;99.90;;;;;;5088907;28;20876;-54
2021/04/15 03:45:28;;;;;;;9.70;7.13;;;3.60;99.90;;;;;;5084977;28;20450;-53
2021/04/15 03:47:59;;;;;;;9.67;6.90;;;3.60;99.90;;;;;;5074396;28;20453;-54
2021/04/15 03:50:30;;;;;;;11.23;7.37;;;3.60;99.90;;;;;;5074523;28;20449;-53
2021/04/15 03:53:00;;;;;;;10.20;7.70;;;3.50;99.90;;;;;;5076059;28;20446;-54
2021/04/15 03:55:31;;;;;;;11.70;8.13;;;3.50;99.90;;;;;;5092279;28;20456;-54
2021/04/15 03:58:03;;;;;;;9.00;7.10;;;3.50;99.90;;;;;;5094869;28;20443;-54
2021/04/15 04:00:35;;;;;;;10.73;7.00;;;3.50;99.90;;;;;;5078406;28;20481;-53
2021/04/15 04:03:06;;;;;;;11.33;7.73;;;3.40;99.90;;;;;;5094884;28;20451;-54
2021/04/15 04:05:38;;;;;;;12.37;7.67;;;3.20;99.90;;;;;;5094763;28;20581;-54
2021/04/15 04:08:10;;;;;;;9.73;7.47;;;3.10;99.90;;;;;;5088833;28;20447;-54
2021/04/15 04:10:39;;;;;;;9.57;7.23;;;3.30;99.90;;;;;;5094197;28;20447;-54
2021/04/15 04:13:22;;;;;;;13.43;7.83;;;3.30;99.90;;;;;;5074130;28;20938;-54
2021/04/15 04:15:54;;;;;;;13.30;7.87;;;3.40;99.90;;;;;;5092445;28;20506;-53
2021/04/15 04:18:26;;;;;;;9.30;7.13;;;3.50;99.90;;;;;;5083582;28;20947;-54
2021/04/15 04:21:01;;;;;;;14.43;7.80;;;3.50;99.90;;;;;;5074331;28;21042;-53
2021/04/15 04:23:36;;;;;;;10.20;8.10;;;3.50;99.90;;;;;;5075817;28;20512;-53
2021/04/15 04:26:09;;;;;;;11.30;7.57;;;3.50;99.90;;;;;;5094477;28;20496;-54
2021/04/15 04:28:40;;;;;;;11.20;8.40;;;3.40;99.90;;;;;;5094083;28;20445;-55
2021/04/15 04:31:16;;;;;;;10.23;8.23;;;3.10;99.90;;;;;;5094002;28;20448;-54
2021/04/15 04:33:46;;;;;;;11.33;8.33;;;3.30;99.90;;;;;;5092188;28;20559;-54
2021/04/15 04:36:14;;;;;;;10.90;7.73;;;3.40;99.90;;;;;;5080502;28;20501;-54
2021/04/15 04:38:41;;;;;;;11.70;8.40;;;3.30;99.90;;;;;;5074681;28;20446;-53
2021/04/15 04:41:12;;;;;;;13.40;8.20;;;3.30;99.90;;;;;;5073866;28;21007;-54
2021/04/15 04:43:44;;;;;;;12.77;8.23;;;3.20;99.90;;;;;;5074279;28;20470;-54
2021/04/15 04:46:18;;;;;;;12.37;8.60;;;3.20;99.90;;;;;;5075330;28;20476;-53
2021/04/15 04:48:52;;;;;;;10.77;7.50;;;3.20;99.90;;;;;;5086620;28;20453;-54
2021/04/15 04:51:21;;;;;;;11.20;7.33;;;3.30;99.90;;;;;;5091344;28;20979;-54
2021/04/15 04:53:50;;;;;;;11.10;7.50;;;3.40;99.90;;;;;;5076180;28;20477;-53
2021/04/15 04:56:25;;;;;;;11.33;7.90;;;3.30;99.90;;;;;;5071705;28;20458;-53
2021/04/15 04:58:53;;;;;;;11.40;7.70;;;3.30;99.90;;;;;;5081070;28;20457;-53
2021/04/15 05:01:21;;;;;;;12.27;8.37;;;3.40;99.90;;;;;;5093603;28;20474;-53
2021/04/15 05:03:48;;;;;;;12.50;8.77;;;3.40;99.90;;;;;;5086493;28;20478;-52
2021/04/15 05:06:22;;;;;;;16.47;8.90;;;3.50;99.90;;;;;;5082244;28;20439;-54
2021/04/15 05:08:58;;;;;;;12.17;8.10;;;3.50;99.90;;;;;;5092929;28;20458;-53
2021/04/15 05:11:29;;;;;;;12.93;8.23;;;3.70;99.90;;;;;;5093751;28;20445;-53
2021/04/15 05:13:56;;;;;;;14.00;8.20;;;3.70;99.90;;;;;;5084715;28;20879;-53
2021/04/15 05:16:27;;;;;;;13.17;9.03;;;3.80;99.90;;;;;;5083901;28;20481;-53
2021/04/15 05:18:54;;;;;;;15.10;9.30;;;3.90;99.90;;;;;;5079453;28;20503;-52
2021/04/15 05:21:25;;;;;;;15.10;8.63;;;4.00;99.90;;;;;;5088051;28;20912;-53
2021/04/15 05:23:56;;;;;;;13.80;9.07;;;4.00;99.90;;;;;;5085798;28;20461;-54
2021/04/15 05:26:25;;;;;;;14.20;8.90;;;4.10;99.90;;;;;;5093003;28;21125;-53
2021/04/15 05:28:57;;;;;;;20.33;10.10;;;4.00;99.90;;;;;;5077939;28;20448;-54
2021/04/15 05:31:28;;;;;;;14.20;9.50;;;3.90;99.90;;;;;;5077475;28;20449;-53
2021/04/15 05:33:57;;;;;;;12.97;9.30;;;4.00;99.90;;;;;;5089899;28;20481;-54
2021/04/15 05:36:28;;;;;;;15.20;9.50;;;4.10;99.90;;;;;;5100972;22;20683;-50
2021/04/15 05:38:57;;;;;;;18.73;9.70;;;4.40;99.90;;;;;;5051736;28;20952;-50
2021/04/15 05:41:29;;;;;;;13.03;8.73;;;4.50;99.90;;;;;;5051915;28;20999;-49
2021/04/15 05:43:59;;;;;;;13.23;8.10;;;4.60;99.90;;;;;;5051776;28;20982;-50
2021/04/15 05:46:30;;;;;;;19.93;9.50;;;4.50;99.90;;;;;;5050703;28;20475;-50
2021/04/15 05:48:59;;;;;;;15.60;10.67;;;4.60;99.90;;;;;;5052777;28;20456;-50
2021/04/15 05:51:31;;;;;;;13.77;9.90;;;4.70;99.90;;;;;;5052520;28;20962;-50
2021/04/15 05:54:04;;;;;;;16.57;10.97;;;4.90;99.90;;;;;;5049595;28;20456;-51
2021/04/15 05:56:36;;;;;;;17.00;10.70;;;4.80;99.90;;;;;;5046508;28;20901;-50
2021/04/15 05:59:10;;;;;;;15.77;9.80;;;5.00;99.90;;;;;;5045769;28;20464;-51
2021/04/15 06:01:46;;;;;;;13.90;9.60;;;5.10;99.90;;;;;;5049695;28;21177;-50
2021/04/15 06:04:22;;;;;;;13.90;9.80;;;5.20;99.90;;;;;;5041695;28;20937;-51
2021/04/15 06:06:48;;;;;;;15.47;9.87;;;5.40;99.90;;;;;;5048645;28;20471;-51
2021/04/15 06:09:15;;;;;;;13.93;10.33;;;5.40;99.90;;;;;;5052022;28;20447;-50
2021/04/15 06:11:57;;;;;;;18.27;10.17;;;5.60;99.90;;;;;;5052617;28;20955;-50
2021/04/15 06:14:30;;;;;;;16.33;9.70;;;5.60;99.90;;;;;;5052566;28;20451;-50
2021/04/15 06:17:19;;;;;;;17.03;9.63;;;6.00;99.90;;;;;;5052521;28;20471;-50
2021/04/15 06:19:52;;;;;;;15.83;9.63;;;6.60;99.90;;;;;;5052071;28;20475;-51
2021/04/15 06:22:22;;;;;;;12.77;9.07;;;6.40;99.90;;;;;;5052405;28;21048;-51
2021/04/15 06:24:55;;;;;;;13.17;9.67;;;6.20;99.90;;;;;;5052197;28;20456;-51
2021/04/15 06:27:22;;;;;;;13.40;9.27;;;6.30;99.90;;;;;;5052215;28;20832;-50
2021/04/15 06:29:56;;;;;;;12.63;8.90;;;6.50;99.90;;;;;;5051487;28;20481;-51
2021/04/15 06:32:32;;;;;;;17.00;10.43;;;6.30;99.90;;;;;;5051334;28;20443;-51
2021/04/15 06:34:59;;;;;;;13.07;9.27;;;6.30;99.90;;;;;;5051691;28;20530;-50
2021/04/15 06:37:40;;;;;;;14.33;9.80;;;5.80;99.90;;;;;;5051383;28;20886;-51
2021/04/15 06:40:47;;;;;;;15.93;10.83;;;5.70;99.90;;;;;;5051823;28;20455;-51
2021/04/15 06:43:37;;;;;;;15.60;10.00;;;5.50;99.90;;;;;;5048026;28;20499;-50
2021/04/15 06:46:14;;;;;;;16.47;10.63;;;5.60;99.90;;;;;;5020474;28;20463;-50
2021/04/15 06:49:21;;;;;;;17.87;10.70;;;5.20;99.90;;;;;;5051270;28;20503;-50
2021/04/15 06:51:54;;;;;;;18.23;11.17;;;5.10;99.90;;;;;;5043475;28;20452;-50
2021/04/15 06:54:38;;;;;;;18.43;10.80;;;5.30;99.90;;;;;;5050269;28;20456;-50
2021/04/15 06:57:20;;;;;;;13.97;9.53;;;5.00;99.90;;;;;;5051538;28;20535;-51
2021/04/15 07:00:14;;;;;;;16.40;10.77;;;4.90;99.90;;;;;;5050470;28;20469;-50
2021/04/15 07:02:54;;;;;;;16.67;11.30;;;5.30;99.90;;;;;;5029827;28;20549;-50
2021/04/15 07:05:25;;;;;;;18.60;10.97;;;5.20;99.90;;;;;;5051784;28;20455;-50
2021/04/15 07:07:56;;;;;;;17.00;11.77;;;5.10;99.90;;;;;;5050518;28;20479;-50
2021/04/15 07:10:54;;;;;;;15.60;10.80;;;5.30;99.90;;;;;;5049550;28;20458;-50
2021/04/15 07:13:54;;;;;;;21.40;9.90;;;5.10;99.90;;;;;;5051253;28;20460;-50
2021/04/15 07:16:52;;;;;;;19.07;10.80;;;5.00;99.90;;;;;;5047264;28;20471;-50
2021/04/15 07:19:47;;;;;;;18.60;10.60;;;5.10;99.90;;;;;;5042374;28;20463;-50
2021/04/15 07:22:57;;;;;;;16.80;10.43;;;5.40;99.90;;;;;;5051033;28;20491;-50
2021/04/15 07:25:38;;;;;;;18.60;11.23;;;5.70;99.90;;;;;;4979372;28;20455;-50
2021/04/15 07:28:14;;;;;;;13.40;9.60;;;6.20;99.90;;;;;;5050738;28;20468;-51
2021/04/15 07:31:33;;;;;;;16.40;9.90;;;6.70;99.90;;;;;;5040287;28;20454;-52
2021/04/15 07:34:33;;;;;;;13.90;9.87;;;7.00;99.90;;;;;;4967419;28;20851;-52
2021/04/15 07:37:14;;;;;;;16.03;10.13;;;6.70;99.90;;;;;;4950680;29;20489;-52
2021/04/15 07:40:05;;;;;;;15.30;10.30;;;6.20;99.90;;;;;;5021834;28;20448;-51
2021/04/15 07:42:49;;;;;;;14.40;10.00;;;6.40;99.90;;;;;;5031411;28;20545;-51
2021/04/15 07:45:22;;;;;;;16.10;11.00;;;6.30;99.90;;;;;;5031482;28;20506;-51
2021/04/15 07:48:07;;;;;;;15.60;10.40;;;6.40;99.90;;;;;;5047573;28;20471;-51
2021/04/15 07:51:03;;;;;;;13.93;10.10;;;7.00;99.90;;;;;;5051188;28;20448;-51
2021/04/15 07:53:53;;;;;;;13.67;9.30;;;6.60;99.90;;;;;;5051012;28;20443;-51
2021/04/15 07:56:49;;;;;;;13.83;9.67;;;6.70;99.90;;;;;;5050952;28;20487;-51
2021/04/15 07:59:37;;;;;;;14.97;9.13;;;7.40;99.90;;;;;;5051051;28;20440;-51
2021/04/15 08:02:34;;;;;;;13.90;9.30;;;7.40;99.90;;;;;;5050905;28;20522;-51
2021/04/15 08:05:26;;;;;;;12.43;8.90;;;7.80;99.90;;;;;;5050399;28;20455;-51
2021/04/15 08:08:16;;;;;;;16.60;10.00;;;7.50;99.90;;;;;;5042952;28;20483;-51
2021/04/15 08:11:15;;;;;;;14.87;9.67;;;7.40;99.90;;;;;;5044696;28;20490;-51
2021/04/15 08:14:11;;;;;;;12.27;9.80;;;7.10;99.90;;;;;;5046538;28;20517;-51
2021/04/15 08:16:50;;;;;;;10.00;8.20;;;6.90;99.90;;;;;;5025465;28;20467;-51
2021/04/15 08:19:47;;;;;;;12.00;9.00;;;7.70;99.90;;;;;;5054055;28;20447;-51
2021/04/15 08:22:23;;;;;;;12.73;9.80;;;7.80;99.90;;;;;;5046056;28;20494;-52
2021/04/15 08:25:01;;;;;;;12.17;9.27;;;7.90;99.90;;;;;;5053694;28;20458;-51
2021/04/15 08:27:56;;;;;;;12.17;9.00;;;7.50;99.90;;;;;;5054225;28;20473;-51
2021/04/15 08:31:07;;;;;;;12.57;8.90;;;8.00;99.90;;;;;;5053154;28;20529;-51
2021/04/15 08:33:47;;;;;;;12.40;9.50;;;8.30;99.90;;;;;;5047411;28;20945;-51
2021/04/15 08:36:50;;;;;;;12.73;8.90;;;8.70;99.90;;;;;;5053456;28;20473;-52
2021/04/15 08:39:32;;;;;;;15.47;9.90;;;8.70;99.90;;;;;;5040961;28;20454;-51
2021/04/15 08:42:11;;;;;;;12.87;8.40;;;8.80;99.90;;;;;;5053983;28;21006;-51
2021/04/15 08:44:58;;;;;;;11.17;7.57;;;9.20;99.90;;;;;;5046281;28;20463;-52
2021/04/15 08:47:49;;;;;;;11.30;8.03;;;10.60;99.90;;;;;;5032244;28;20486;-51
2021/04/15 08:50:24;;;;;;;14.30;8.90;;;10.60;99.90;;;;;;5033939;28;20506;-50
2021/04/15 08:53:03;;;;;;;11.20;8.33;;;10.90;99.90;;;;;;5042173;28;20455;-51
2021/04/15 08:55:38;;;;;;;10.17;8.20;;;11.50;99.90;;;;;;5039988;28;20456;-51
2021/04/15 08:58:29;;;;;;;8.80;7.00;;;12.10;99.10;;;;;;5052939;28;20467;-50
2021/04/15 09:01:02;;;;;;;10.47;7.80;;;11.80;97.00;;;;;;5053577;28;20522;-50
2021/04/15 09:03:36;;;;;;;9.50;7.00;;;12.40;96.70;;;;;;5053514;28;20455;-53
2021/04/15 09:06:14;;;;;;;6.73;6.03;;;13.00;96.10;;;;;;5052277;28;20446;-52
2021/04/15 09:08:56;;;;;;;7.40;6.30;;;12.30;93.60;;;;;;5052586;28;20443;-52
2021/04/15 09:11:31;;;;;;;6.50;5.80;;;12.10;92.00;;;;;;5052045;28;20828;-52
2021/04/15 09:14:04;;;;;;;8.23;6.30;;;11.80;92.70;;;;;;5053367;28;20530;-51
2021/04/15 09:16:37;;;;;;;7.23;6.30;;;11.70;94.80;;;;;;5051604;28;20525;-52
2021/04/15 09:19:15;;;;;;;6.70;5.83;;;12.50;92.50;;;;;;5052093;28;20886;-51
2021/04/15 09:21:54;;;;;;;8.13;5.90;;;12.60;92.00;;;;;;5047984;28;20993;-50
2021/04/15 09:24:34;;;;;;;6.63;5.47;;;13.50;90.20;;;;;;5049125;28;20466;-50
2021/04/15 09:27:26;;;;;;;9.50;5.60;;;13.60;90.00;;;;;;5033155;28;20468;-50
2021/04/15 09:30:22;;;;;;;6.83;6.10;;;12.80;89.60;;;;;;5032856;28;20453;-50
2021/04/15 09:33:03;;;;;;;5.73;5.17;;;12.80;89.30;;;;;;5027810;28;20503;-51
2021/04/15 09:35:51;;;;;;;8.10;5.80;;;14.10;90.00;;;;;;5048678;28;20443;-51
2021/04/15 09:38:56;;;;;;;6.50;5.30;;;14.50;83.40;;;;;;5052564;28;20945;-50
2021/04/15 09:41:57;;;;;;;10.70;5.63;;;14.70;78.00;;;;;;5052940;28;20486;-50
2021/04/15 09:44:42;;;;;;;7.13;6.20;;;14.50;80.50;;;;;;5032887;28;20975;-51
2021/04/15 09:47:25;;;;;;;6.20;5.53;;;14.50;79.10;;;;;;5032662;28;20470;-51
2021/04/15 09:49:59;;;;;;;9.70;7.20;;;14.40;81.90;;;;;;5033919;28;20452;-51
2021/04/15 09:52:40;;;;;;;7.10;6.10;;;13.50;82.70;;;;;;5047564;28;20457;-50
2021/04/15 09:55:21;;;;;;;7.73;6.57;;;13.00;83.30;;;;;;5036784;28;20819;-50
2021/04/15 09:57:55;;;;;;;7.57;6.10;;;12.70;85.90;;;;;;5037840;28;20543;-50
2021/04/15 10:00:27;;;;;;;9.40;7.30;;;11.20;90.00;;;;;;5052714;28;20446;-51
2021/04/15 10:03:09;;;;;;;10.40;6.97;;;10.50;90.70;;;;;;5052614;28;20491;-51
2021/04/15 10:05:48;;;;;;;8.77;6.50;;;10.60;87.40;;;;;;5051591;28;20680;-51
2021/04/15 10:08:29;;;;;;;8.07;6.40;;;10.10;90.70;;;;;;5051855;28;20485;-51
2021/04/15 10:11:04;;;;;;;7.83;6.10;;;10.00;88.90;;;;;;5052199;28;20451;-50
2021/04/15 10:13:44;;;;;;;8.23;6.80;;;10.10;90.20;;;;;;5052112;28;20446;-50
2021/04/15 10:16:18;;;;;;;8.77;6.40;;;9.20;92.30;;;;;;5052226;28;20569;-51
2021/04/15 10:19:06;;;;;;;9.20;6.90;;;8.70;93.30;;;;;;5052013;28;20968;-50
2021/04/15 10:21:44;;;;;;;8.30;6.27;;;8.20;95.20;;;;;;5051635;28;20494;-49
2021/04/15 10:24:18;;;;;;;11.40;6.93;;;8.40;95.20;;;;;;5051130;28;20466;-49
2021/04/15 10:27:17;;;;;;;9.90;6.30;;;8.10;95.10;;;;;;5051768;28;20472;-51
2021/04/15 10:30:07;;;;;;;8.03;6.27;;;8.30;94.70;;;;;;5048600;28;20478;-50
2021/04/15 10:32:45;;;;;;;7.20;5.47;;;8.70;95.50;;;;;;5050671;28;20447;-49
2021/04/15 10:35:33;;;;;;;9.23;6.20;;;8.30;95.00;;;;;;5050636;28;20473;-49
2021/04/15 10:38:39;;;;;;;12.00;6.07;;;8.20;95.50;;;;;;5050419;28;20542;-49
2021/04/15 10:41:33;;;;;;;7.53;5.47;;;8.20;95.30;;;;;;5060702;28;20507;-49
2021/04/15 10:44:34;;;;;;;11.60;7.00;;;8.20;96.30;;;;;;5069810;28;20462;-49
2021/04/15 10:47:31;;;;;;;8.07;5.57;;;8.10;95.80;;;;;;5031619;28;20464;-50
2021/04/15 10:50:08;;;;;;;8.17;5.63;;;8.00;96.20;;;;;;5031743;28;20448;-49
2021/04/15 10:52:50;;;;;;;8.53;6.30;;;8.10;96.10;;;;;;5039841;28;20448;-49
2021/04/15 10:55:20;;;;;;;8.67;5.70;;;7.80;95.60;;;;;;5051429;28;20817;-50
2021/04/15 10:57:48;;;;;;;8.30;6.30;;;8.00;98.50;;;;;;5051477;28;20468;-50
2021/04/15 11:00:31;;;;;;;9.30;6.10;;;8.40;98.90;;;;;;5051915;28;20451;-50
2021/04/15 11:03:15;;;;;;;8.30;5.30;;;9.20;99.90;;;;;;5051511;28;20482;-50
2021/04/15 11:05:45;;;;;;;6.67;4.80;;;9.10;97.00;;;;;;5051488;28;20447;-50
2021/04/15 11:08:19;;;;;;;7.80;4.90;;;8.70;96.60;;;;;;5051017;28;20463;-50
2021/04/15 11:10:46;;;;;;;6.73;5.50;;;8.80;95.10;;;;;;5051422;28;20449;-49
2021/04/15 11:13:24;;;;;;;5.57;4.77;;;8.40;97.20;;;;;;5051678;28;20447;-50
2021/04/15 11:15:53;;;;;;;5.50;4.87;;;8.50;95.00;;;;;;5051297;28;20448;-49
2021/04/15 11:18:26;;;;;;;7.47;4.77;;;8.80;97.20;;;;;;5050971;28;20513;-51
2021/04/15 11:21:10;;;;;;;5.17;4.43;;;9.20;94.90;;;;;;5051363;28;20478;-50
2021/04/15 11:23:37;;;;;;;8.03;5.27;;;9.20;97.20;;;;;;5050976;28;20841;-50
2021/04/15 11:26:16;;;;;;;5.63;4.27;;;9.10;95.00;;;;;;5050790;28;20456;-50
2021/04/15 11:28:43;;;;;;;11.43;5.13;;;9.30;93.70;;;;;;5050658;28;20453;-50
2021/04/15 11:31:31;;;;;;;9.20;4.50;;;9.60;91.60;;;;;;5051465;28;20449;-49
2021/04/15 11:34:10;;;;;;;7.30;4.90;;;10.00;90.50;;;;;;5051232;28;20801;-50
2021/04/15 11:36:39;;;;;;;5.07;4.57;;;10.00;89.60;;;;;;5051015;28;20863;-50
2021/04/15 11:39:16;;;;;;;5.97;4.70;;;9.90;89.60;;;;;;5034460;28;20969;-50
2021/04/15 11:41:56;;;;;;;5.70;4.70;;;9.90;90.00;;;;;;5031363;28;20956;-50
2021/04/15 11:44:34;;;;;;;6.03;4.73;;;10.00;87.60;;;;;;5031859;28;20449;-50
2021/04/15 11:47:06;;;;;;;6.50;4.50;;;10.20;86.80;;;;;;5035142;28;20876;-50
2021/04/15 11:49:36;;;;;;;5.03;4.50;;;10.40;87.60;;;;;;5034567;28;20451;-50
2021/04/15 11:52:20;;;;;;;7.80;4.87;;;10.60;88.60;;;;;;5035146;28;20451;-50
2021/04/15 11:55:02;;;;;;;6.03;4.93;;;10.80;89.30;;;;;;5035792;28;20482;-51
2021/04/15 11:57:31;;;;;;;7.00;5.50;;;10.00;90.30;;;;;;5034968;28;20501;-50
2021/04/15 12:00:21;;;;;;;6.00;4.77;;;9.40;91.90;;;;;;5034806;28;20457;-49
2021/04/15 12:03:07;;;;;;;6.93;5.40;;;9.10;93.00;;;;;;5034957;28;20516;-51
2021/04/15 12:05:37;;;;;;;7.53;5.33;;;9.20;93.70;;;;;;5034939;28;20448;-50
2021/04/15 12:08:12;;;;;;;9.57;5.03;;;9.60;92.60;;;;;;5034620;28;20484;-51
2021/04/15 12:10:41;;;;;;;5.47;4.50;;;9.80;92.10;;;;;;5048410;28;20457;-49
2021/04/15 12:13:18;;;;;;;5.80;4.80;;;9.80;92.30;;;;;;5054794;28;20449;-50
2021/04/15 12:15:51;;;;;;;7.80;5.20;;;9.90;93.20;;;;;;5054549;28;20453;-50
2021/04/15 12:18:25;;;;;;;8.90;5.50;;;10.00;92.30;;;;;;5054199;28;20508;-51
2021/04/15 12:21:00;;;;;;;6.70;4.93;;;10.10;93.20;;;;;;5054197;28;20457;-50
2021/04/15 12:23:36;;;;;;;6.50;5.30;;;10.30;92.80;;;;;;5052706;28;20454;-50
2021/04/15 12:26:05;;;;;;;6.47;5.10;;;10.00;91.50;;;;;;5054343;28;20444;-50
2021/04/15 12:28:41;;;;;;;5.90;4.50;;;10.00;93.80;;;;;;5057579;28;20455;-50
2021/04/15 12:31:17;;;;;;;7.73;5.50;;;9.80;93.10;;;;;;5073890;28;20828;-49
2021/04/15 12:33:52;;;;;;;7.27;4.33;;;9.70;93.30;;;;;;5074241;28;20453;-50
2021/04/15 12:36:27;;;;;;;5.07;4.00;;;9.80;91.30;;;;;;5073995;28;20484;-49
2021/04/15 12:38:58;;;;;;;4.50;4.00;;;9.40;87.50;;;;;;5068862;28;20505;-48
2021/04/15 12:41:26;;;;;;;5.17;4.10;;;9.20;89.10;;;;;;5053642;28;20478;-50
2021/04/15 12:44:02;;;;;;;4.37;3.80;;;9.50;87.80;;;;;;5054104;28;20518;-49
2021/04/15 12:46:30;;;;;;;4.27;3.53;;;9.20;86.80;;;;;;5053498;28;20471;-49
2021/04/15 12:49:00;;;;;;;4.83;3.97;;;8.80;84.40;;;;;;5053912;28;20451;-49
2021/04/15 12:51:30;;;;;;;3.57;3.27;;;9.00;80.50;;;;;;5053696;28;20952;-49
2021/04/15 12:54:01;;;;;;;3.70;3.30;;;9.30;81.00;;;;;;5052802;28;20458;-50
2021/04/15 12:56:33;;;;;;;4.60;4.07;;;9.70;79.60;;;;;;5052852;28;20463;-50
2021/04/15 12:59:00;;;;;;;4.10;3.17;;;10.00;80.30;;;;;;5053470;28;21002;-50
2021/04/15 13:01:29;;;;;;;4.60;3.70;;;10.20;80.60;;;;;;5053541;28;20553;-50
2021/04/15 13:04:11;;;;;;;5.70;4.40;;;10.40;81.20;;;;;;5053763;28;20455;-51
2021/04/15 13:07:24;;;;;;;5.73;4.60;;;10.40;85.80;;;;;;5044453;28;20483;-50
2021/04/15 13:09:53;;;;;;;8.50;4.37;;;10.50;84.80;;;;;;5023185;28;20472;-50
2021/04/15 13:12:37;;;;;;;6.60;4.00;;;10.00;82.00;;;;;;5033452;28;20452;-50
2021/04/15 13:15:07;;;;;;;5.57;4.50;;;10.00;82.60;;;;;;5033307;28;20840;-50
2021/04/15 13:17:49;;;;;;;6.63;4.33;;;10.00;82.40;;;;;;5033326;28;20471;-50
2021/04/15 13:20:38;;;;;;;6.50;4.50;;;10.00;82.50;;;;;;5034454;28;21017;-50
2021/04/15 13:23:43;;;;;;;6.10;4.10;;;9.90;81.70;;;;;;5033551;28;20480;-49
2021/04/15 13:26:28;;;;;;;6.73;4.30;;;9.80;82.80;;;;;;5033393;28;20960;-50
2021/04/15 13:29:31;;;;;;;5.63;4.53;;;10.30;81.60;;;;;;5047206;28;20454;-49
2021/04/15 13:32:01;;;;;;;4.83;3.60;;;10.40;83.10;;;;;;5073276;28;20446;-49
2021/04/15 13:34:30;;;;;;;7.23;4.30;;;10.30;83.90;;;;;;5057614;28;20963;-49
2021/04/15 13:37:39;;;;;;;4.93;4.00;;;10.00;86.40;;;;;;5081136;22;20501;-52
2021/04/15 13:40:27;;;;;;;5.33;4.20;;;9.50;86.80;;;;;;5076661;28;20448;-52